createdAt,value
2022-08-12T04:18:13.866Z,23.02
2022-08-12T04:20:42.890Z,23.05
2022-08-12T04:23:16.787Z,23.03
2022-08-12T04:25:45.019Z,23.06
2022-08-12T04:28:14.095Z,23.09
2022-08-12T04:30:42.191Z,23.09
2022-08-12T04:33:10.625Z,23.02
2022-08-12T04:35:39.659Z,23.09
2022-08-12T04:38:08.503Z,23.11
2022-08-12T04:40:37.400Z,23.17
2022-08-12T04:43:07.016Z,23.19
2022-08-12T04:45:54.720Z,23.08
2022-08-12T04:48:22.468Z,22.93
2022-08-12T04:50:51.864Z,22.80
2022-08-12T04:53:19.921Z,22.74
2022-08-12T04:55:48.141Z,22.66
2022-08-12T04:58:15.789Z,22.67
2022-08-12T05:00:57.677Z,22.61
2022-08-12T05:03:26.500Z,22.60
2022-08-12T05:05:56.655Z,22.64
2022-08-12T05:08:25.553Z,22.60
2022-08-12T05:10:54.001Z,22.58
2022-08-12T05:13:24.326Z,22.62
2022-08-12T05:16:05.643Z,22.62
2022-08-12T05:18:39.505Z,22.67
2022-08-12T05:21:10.396Z,22.76
2022-08-12T05:23:39.331Z,22.72
2022-08-12T05:26:07.710Z,22.75
2022-08-12T05:28:35.916Z,22.71
2022-08-12T05:31:03.890Z,22.69
2022-08-12T05:33:38.393Z,22.77
2022-08-12T05:36:09.245Z,22.94
2022-08-12T05:38:54.956Z,23.06
2022-08-12T05:41:24.323Z,23.20
2022-08-12T05:43:53.214Z,23.23
2022-08-12T05:46:21.435Z,23.29
2022-08-12T05:48:51.194Z,23.34
2022-08-12T05:51:20.219Z,23.37
2022-08-12T05:53:48.301Z,23.36
2022-08-12T05:56:24.362Z,23.44
2022-08-12T05:58:52.657Z,23.46
2022-08-12T06:02:11.589Z,23.55
2022-08-12T06:04:09.680Z,23.58
2022-08-12T06:06:42.208Z,23.59
2022-08-12T06:09:11.356Z,23.61
2022-08-12T06:11:41.359Z,23.68
2022-08-12T06:14:27.672Z,23.77
2022-08-12T06:16:56.195Z,23.84
2022-08-12T06:19:25.146Z,23.86
2022-08-12T06:22:15.451Z,23.92
2022-08-12T06:24:43.109Z,23.99
2022-08-12T06:27:11.535Z,24.02
2022-08-12T06:30:07.544Z,24.06
2022-08-12T06:32:28.493Z,24.11
2022-08-12T06:35:27.128Z,24.20
2022-08-12T06:38:01.407Z,24.27
2022-08-12T06:40:45.971Z,24.30
2022-08-12T06:43:19.802Z,24.38
2022-08-12T06:45:49.432Z,24.41
2022-08-12T06:48:17.475Z,24.46
2022-08-12T06:50:46.042Z,24.46
2022-08-12T06:53:15.057Z,24.51
2022-08-12T06:55:57.807Z,24.55
2022-08-12T06:58:27.256Z,24.58
2022-08-12T07:00:55.965Z,24.61
2022-08-12T07:03:27.579Z,24.66
2022-08-12T07:05:56.532Z,24.70
2022-08-12T07:08:27.710Z,24.74
2022-08-12T07:10:59.178Z,24.79
2022-08-12T07:13:28.486Z,24.80
2022-08-12T07:15:56.815Z,24.88
2022-08-12T07:18:30.388Z,24.92
2022-08-12T07:20:58.248Z,24.94
2022-08-12T07:23:27.787Z,24.95
2022-08-12T07:25:58.481Z,25.03
2022-08-12T07:28:29.456Z,25.23
2022-08-12T07:30:58.739Z,25.55
2022-08-12T07:33:29.024Z,25.47
2022-08-12T07:35:59.843Z,25.46
2022-08-12T07:38:31.409Z,25.54
2022-08-12T07:41:05.677Z,25.61
2022-08-12T07:43:36.472Z,25.64
2022-08-12T07:46:08.132Z,25.67
2022-08-12T07:48:38.495Z,25.70
2022-08-12T07:51:06.731Z,25.78
2022-08-12T07:53:47.761Z,25.89
2022-08-12T07:56:28.213Z,26.01
2022-08-12T07:58:59.282Z,26.09
2022-08-12T08:01:28.154Z,26.20
2022-08-12T08:04:18.691Z,26.42
2022-08-12T08:06:47.976Z,26.45
2022-08-12T08:09:18.912Z,26.64
2022-08-12T08:12:03.951Z,26.71
2022-08-12T08:14:31.739Z,26.85
2022-08-12T08:17:03.320Z,26.90
2022-08-12T08:19:33.648Z,27.11
2022-08-12T08:29:52.536Z,27.47
2022-08-12T08:32:20.176Z,27.53
2022-08-12T08:34:54.200Z,27.65
2022-08-12T08:37:22.309Z,27.77
2022-08-12T08:39:51.137Z,27.91
2022-08-12T08:42:36.242Z,28.09
2022-08-12T08:45:12.906Z,28.13
2022-08-12T08:47:44.661Z,28.38
2022-08-12T08:50:15.238Z,28.37
2022-08-12T08:52:43.498Z,28.41
2022-08-12T08:55:14.005Z,28.42
2022-08-12T08:57:44.729Z,28.55
2022-08-12T09:00:19.673Z,28.69
2022-08-12T09:02:59.430Z,28.84
2022-08-12T09:05:28.149Z,29.00
2022-08-12T09:08:15.434Z,29.07
2022-08-12T09:10:50.706Z,29.08
2022-08-12T09:14:11.976Z,29.23
2022-08-12T09:19:05.743Z,29.30
2022-08-12T09:21:54.563Z,29.36
2022-08-12T09:24:21.495Z,29.39
2022-08-12T09:26:50.409Z,29.56
2022-08-12T09:30:10.346Z,29.57
2022-08-12T09:32:57.149Z,29.70
2022-08-12T09:34:58.395Z,29.82
2022-08-12T09:37:26.706Z,29.88
2022-08-12T09:40:05.580Z,29.96
2022-08-12T09:43:18.023Z,30.00
2022-08-12T09:46:06.693Z,30.10
2022-08-12T09:48:39.388Z,30.16
2022-08-12T09:51:17.179Z,30.25
2022-08-12T09:54:09.167Z,30.23
2022-08-12T09:57:00.873Z,30.33
2022-08-12T10:00:16.689Z,30.35
2022-08-12T10:02:45.732Z,30.27
2022-08-12T10:05:03.338Z,30.27
2022-08-12T10:07:39.736Z,30.26
2022-08-12T10:10:23.867Z,30.33
2022-08-12T10:13:12.643Z,30.49
2022-08-12T10:16:02.430Z,30.51
2022-08-12T10:18:35.214Z,30.66
2022-08-12T10:21:08.427Z,30.64
2022-08-12T10:23:40.288Z,30.58
2022-08-12T10:26:36.607Z,30.54
2022-08-12T10:30:03.474Z,30.55
2022-08-12T10:32:21.783Z,30.52
2022-08-12T10:34:53.726Z,30.61
2022-08-12T10:38:36.299Z,30.65
2022-08-12T10:40:19.696Z,30.66
2022-08-12T10:43:06.451Z,30.82
2022-08-12T10:45:38.502Z,30.83
2022-08-12T10:48:20.185Z,30.87
2022-08-12T10:51:01.903Z,30.91
2022-08-12T10:53:45.908Z,30.84
2022-08-12T10:56:15.454Z,30.87
2022-08-12T10:58:46.247Z,30.88
2022-08-12T11:01:50.182Z,30.86
2022-08-12T11:04:22.962Z,30.94
2022-08-12T11:07:02.963Z,30.96
2022-08-12T11:09:41.686Z,30.95
2022-08-12T11:12:56.421Z,31.02
2022-08-12T11:15:20.548Z,31.04
2022-08-12T11:17:55.621Z,31.14
2022-08-12T11:20:29.007Z,31.24
2022-08-12T11:22:59.872Z,31.23
2022-08-12T11:25:57.278Z,31.32
2022-08-12T11:28:34.203Z,31.34
2022-08-12T11:31:12.237Z,31.46
2022-08-12T11:34:05.996Z,31.43
2022-08-12T11:36:30.627Z,31.44
2022-08-12T11:39:04.262Z,31.52
2022-08-12T11:41:35.824Z,31.62
2022-08-12T11:44:35.359Z,31.60
2022-08-12T11:46:54.483Z,31.66
2022-08-12T11:49:32.254Z,31.63
2022-08-12T11:52:02.367Z,31.56
2022-08-12T11:54:30.490Z,31.52
2022-08-12T11:57:02.507Z,31.42
2022-08-12T12:02:20.690Z,31.08
2022-08-12T12:04:52.606Z,30.98
2022-08-12T12:07:22.367Z,30.86
2022-08-12T12:09:53.300Z,30.80
2022-08-12T12:12:25.124Z,30.68
2022-08-12T12:14:54.776Z,30.51
2022-08-12T12:17:24.043Z,30.42
